Kenneth Carl — WDF8246 — position and weather

sailwx.info

Track history (hours):
 
Tides and Currents Weather Stations Pressure Air Temp Water Temp Dewpoint Dewpoint Depression Visibility Wind Speed Wind Dir Waves Ship Positions

Kenneth Carl

Owner: So. Cal. Ship Services, Inc., San Pedro, CA. More information available from US FCC via Universal Licensing System and Coast Guard Vessel Documentation Center.

Last reported at 2017-Jun-27 12:00 UTC. Time now 2017-Jun-27 12:19 UTC.
Position N 33°44' W 118°16'.

Length 31 m; draft 3 m.

Type: Ship. MMSI: 367492920.

Date/timePositionNaut miles runAvg speedWind from/ knotsBaromVisibWave heightAir tempDewpointWater temp
2017-Jun-27 12:00N 33°44' W 118°16'0 0.0
2017-Jun-27 11:29N 33°44' W 118°16'0 0.0
2017-Jun-27 10:59N 33°44' W 118°16'0 0.0
2017-Jun-27 10:30N 33°44' W 118°16'0 0.0
2017-Jun-27 10:00N 33°44' W 118°16'0 0.0
2017-Jun-27 09:26N 33°44' W 118°16'0 0.0
2017-Jun-27 09:00N 33°44' W 118°16'0 0.0
2017-Jun-27 08:30N 33°44' W 118°16'0 0.0
2017-Jun-27 07:59N 33°44' W 118°16'0 0.0
2017-Jun-27 07:29N 33°44' W 118°16'0 0.0
2017-Jun-27 06:59N 33°44' W 118°16'0 0.0
2017-Jun-27 06:24N 33°44' W 118°16'0 0.0
2017-Jun-27 06:00N 33°44' W 118°16'0 0.0
2017-Jun-27 05:30N 33°44' W 118°16'0 0.0
2017-Jun-27 05:00N 33°44' W 118°16'0 0.0
2017-Jun-27 04:30N 33°44' W 118°16'0 0.0
2017-Jun-27 04:00N 33°44' W 118°16'0 0.0
2017-Jun-27 03:30N 33°44' W 118°16'0 0.0
2017-Jun-27 03:00N 33°44' W 118°16'0 0.0
2017-Jun-27 02:27N 33°44' W 118°16'0 0.0
2017-Jun-27 02:00N 33°44' W 118°16'0 0.0
2017-Jun-27 01:30N 33°44' W 118°16'0 0.0
2017-Jun-27 01:00N 33°44' W 118°16'0 0.0
2017-Jun-27 00:30N 33°44' W 118°16'0 0.0
2017-Jun-27 00:00N 33°44' W 118°16'0 0.0
2017-Jun-26 23:30N 33°44' W 118°16'4 7.8
2017-Jun-26 23:00N 33°41' W 118°13'5 9.2
2017-Jun-26 22:30N 33°37' W 118°10'3 6.3
2017-Jun-26 22:00N 33°35' W 118°08'0 0.2
2017-Jun-26 21:30N 33°35' W 118°08'0 0.2
2017-Jun-26 21:00N 33°35' W 118°08'0 0.0
2017-Jun-26 20:30N 33°35' W 118°08'0 0.0
2017-Jun-26 20:00N 33°35' W 118°08'0 0.0
2017-Jun-26 19:30N 33°35' W 118°08'0 0.0
2017-Jun-26 19:00N 33°35' W 118°08'0 0.0
2017-Jun-26 18:30N 33°35' W 118°08'0 0.0
2017-Jun-26 18:00N 33°35' W 118°08'0 0.0
2017-Jun-26 17:30N 33°35' W 118°08'1 1.9
2017-Jun-26 17:00N 33°34' W 118°07'0 0.3
2017-Jun-26 16:30N 33°34' W 118°07'510.4
2017-Jun-26 16:00N 33°39' W 118°10'510.3
2017-Jun-26 15:30N 33°42' W 118°15'2 4.3
2017-Jun-26 15:00N 33°44' W 118°16'0 0.0
2017-Jun-26 14:30N 33°44' W 118°16'0 0.4
2017-Jun-26 13:28N 33°44' W 118°16'0 0.0
2017-Jun-26 12:55N 33°44' W 118°16'0 0.7
2017-Jun-26 12:30N 33°44' W 118°16'0 0.2
2017-Jun-26 11:59N 33°44' W 118°16'0 0.0
2017-Jun-26 11:26N 33°44' W 118°16'0 0.0
2017-Jun-26 10:59N 33°44' W 118°16'0 0.0
2017-Jun-26 10:23N 33°44' W 118°16'0 0.0
2017-Jun-26 09:59N 33°44' W 118°16'0 0.0
2017-Jun-26 09:29N 33°44' W 118°16'0 0.0
2017-Jun-26 08:59N 33°44' W 118°16'0 0.0
2017-Jun-26 08:29N 33°44' W 118°16'0 0.0
2017-Jun-26 08:00N 33°44' W 118°16'0 0.0
2017-Jun-26 07:26N 33°44' W 118°16'0 0.0
2017-Jun-26 06:59N 33°44' W 118°16'0 0.0
2017-Jun-26 06:20N 33°44' W 118°16'0 0.0
2017-Jun-26 05:59N 33°44' W 118°16'0 0.0
2017-Jun-26 05:20N 33°44' W 118°16'0 0.0
2017-Jun-26 04:59N 33°44' W 118°16'0 0.0
2017-Jun-26 04:26N 33°44' W 118°16'0 0.0
2017-Jun-26 03:56N 33°44' W 118°16'0 0.0
2017-Jun-26 03:29N 33°44' W 118°16'0 0.0
2017-Jun-26 02:59N 33°44' W 118°16'0 0.0
2017-Jun-26 02:09N 33°44' W 118°16'0 0.0
2017-Jun-26 01:59N 33°44' W 118°16'0 0.0
2017-Jun-26 01:29N 33°44' W 118°16'0 0.0
2017-Jun-26 00:53N 33°44' W 118°16'0 0.0
2017-Jun-26 00:26N 33°44' W 118°16'0 0.0
2017-Jun-25 23:56N 33°44' W 118°16'0 0.0
2017-Jun-25 23:20N 33°44' W 118°16'0 0.0
2017-Jun-25 22:59N 33°44' W 118°16'0 0.0
2017-Jun-25 22:29N 33°44' W 118°16'0 0.0
2017-Jun-25 21:59N 33°44' W 118°16'0 0.0
2017-Jun-25 21:29N 33°44' W 118°16'0 0.0
2017-Jun-25 20:56N 33°44' W 118°16'0 0.0
2017-Jun-25 20:14N 33°44' W 118°16'0 0.0
2017-Jun-25 19:56N 33°44' W 118°16'0 0.0
2017-Jun-25 19:29N 33°44' W 118°16'0 0.0
2017-Jun-25 18:56N 33°44' W 118°16'0 0.0
2017-Jun-25 18:29N 33°44' W 118°16'0 0.0
2017-Jun-25 17:59N 33°44' W 118°16'0 0.0
2017-Jun-25 17:29N 33°44' W 118°16'0 0.0
2017-Jun-25 15:56N 33°44' W 118°16'0 0.0
2017-Jun-25 15:29N 33°44' W 118°16'0 0.0
2017-Jun-25 14:56N 33°44' W 118°16'0 0.0
2017-Jun-25 14:27N 33°44' W 118°16'0 0.0
2017-Jun-25 13:26N 33°44' W 118°16'0 0.0
2017-Jun-25 12:14N 33°44' W 118°16'0 0.0
2017-Jun-25 11:53N 33°44' W 118°16'0 0.0
2017-Jun-25 11:27N 33°44' W 118°16'0 0.0
2017-Jun-25 10:50N 33°44' W 118°16'0 0.0
2017-Jun-25 10:08N 33°44' W 118°16'0 0.0
2017-Jun-25 09:50N 33°44' W 118°16'0 0.0
2017-Jun-25 09:21N 33°44' W 118°16'0 0.0
2017-Jun-25 08:50N 33°44' W 118°16'0 0.0
2017-Jun-25 08:30N 33°44' W 118°16'0 0.0
2017-Jun-25 07:46N 33°44' W 118°16'0 0.0
2017-Jun-25 07:16N 33°44' W 118°16'0 0.0
2017-Jun-25 06:52N 33°44' W 118°16'0 0.0
2017-Jun-25 06:28N 33°44' W 118°16'0 0.0
2017-Jun-25 05:58N 33°44' W 118°16'0 0.0
2017-Jun-25 05:22N 33°44' W 118°16'0 0.0
2017-Jun-25 04:58N 33°44' W 118°16'0 0.0
2017-Jun-25 04:28N 33°44' W 118°16'0 0.0
2017-Jun-25 03:58N 33°44' W 118°16'0 0.0
2017-Jun-25 03:28N 33°44' W 118°16'0 0.0
2017-Jun-25 02:58N 33°44' W 118°16'0 0.0
2017-Jun-25 02:28N 33°44' W 118°16'0 0.0
2017-Jun-25 01:58N 33°44' W 118°16'0 0.0
2017-Jun-25 01:22N 33°44' W 118°16'0 0.0
2017-Jun-25 00:55N 33°44' W 118°16'0 0.0
2017-Jun-25 00:28N 33°44' W 118°16'0 0.0
2017-Jun-24 22:40N 33°44' W 118°16'0 0.0
2017-Jun-24 22:25N 33°44' W 118°16'0 0.0
2017-Jun-24 21:34N 33°44' W 118°16'0 0.0
2017-Jun-24 21:28N 33°44' W 118°16'0 0.0
2017-Jun-24 18:22N 33°44' W 118°16'0 0.0
2017-Jun-24 17:52N 33°44' W 118°16'0 0.0
2017-Jun-24 16:34N 33°44' W 118°16'0 0.0
2017-Jun-24 16:28N 33°44' W 118°16'0 0.0
2017-Jun-24 15:52N 33°44' W 118°16'0 0.0
2017-Jun-24 15:28N 33°44' W 118°16'0 0.0
2017-Jun-24 13:58N 33°44' W 118°16'0 0.0
2017-Jun-24 13:22N 33°44' W 118°16'0 0.0
2017-Jun-24 12:58N 33°44' W 118°16'0 0.0
2017-Jun-24 12:28N 33°44' W 118°16'0 0.0
2017-Jun-24 11:55N 33°44' W 118°16'0 0.0
2017-Jun-24 11:22N 33°44' W 118°16'0 0.0
2017-Jun-24 10:58N 33°44' W 118°16'0 0.0
2017-Jun-24 10:28N 33°44' W 118°16'0 0.0
2017-Jun-24 09:58N 33°44' W 118°16'0 0.0
2017-Jun-24 09:19N 33°44' W 118°16'0 0.0
2017-Jun-24 08:58N 33°44' W 118°16'0 0.0
2017-Jun-24 08:22N 33°44' W 118°16'0 0.0
2017-Jun-24 07:55N 33°44' W 118°16'0 0.0
2017-Jun-24 07:25N 33°44' W 118°16'0 0.0
2017-Jun-24 06:58N 33°44' W 118°16'0 0.0
2017-Jun-24 06:28N 33°44' W 118°16'0 0.0
2017-Jun-24 05:55N 33°44' W 118°16'0 0.0
2017-Jun-24 05:28N 33°44' W 118°16'0 0.0
2017-Jun-24 04:58N 33°44' W 118°16'0 0.0
2017-Jun-24 04:28N 33°44' W 118°16'0 0.0
2017-Jun-24 03:55N 33°44' W 118°16'0 0.0
2017-Jun-24 03:07N 33°44' W 118°16'0 0.0
2017-Jun-24 02:55N 33°44' W 118°16'0 0.0
2017-Jun-24 02:19N 33°44' W 118°16'0 0.0
2017-Jun-24 01:52N 33°44' W 118°16'0 0.0
2017-Jun-24 00:05N 33°44' W 118°16'0 0.0
2017-Jun-24 00:00N 33°44' W 118°16'1 1.8
2017-Jun-23 23:28N 33°43' W 118°16'5 9.7
2017-Jun-23 22:58N 33°40' W 118°12'4 9.3
2017-Jun-23 22:30N 33°36' W 118°09'2 3.5
2017-Jun-23 22:00N 33°35' W 118°08'0 0.4
2017-Jun-23 21:30N 33°35' W 118°08'0 0.3
2017-Jun-23 21:00N 33°35' W 118°08'0 0.0
2017-Jun-23 20:24N 33°35' W 118°08'0 0.0
2017-Jun-23 19:59N 33°35' W 118°08'0 0.0
2017-Jun-23 19:30N 33°35' W 118°08'0 0.0
2017-Jun-23 19:00N 33°35' W 118°08'0 0.0
2017-Jun-23 18:30N 33°35' W 118°08'0 0.0
2017-Jun-23 17:57N 33°35' W 118°08'0 0.0
2017-Jun-23 17:30N 33°35' W 118°08'0 0.0
2017-Jun-23 17:00N 33°35' W 118°08'1 2.8
2017-Jun-23 16:30N 33°36' W 118°08'610.6
2017-Jun-23 15:57N 33°41' W 118°13'4 8.8
2017-Jun-23 15:27N 33°44' W 118°16'0 0.2
2017-Jun-23 15:00N 33°44' W 118°16'0 0.0
2017-Jun-23 14:09N 33°44' W 118°16'0 0.3
2017-Jun-23 13:04N 33°44' W 118°16'0 0.0
2017-Jun-23 12:52N 33°44' W 118°16'0 0.0
2017-Jun-23 12:30N 33°44' W 118°16'0 0.8
2017-Jun-23 12:00N 33°44' W 118°16'0 0.0
2017-Jun-23 11:18N 33°44' W 118°16'0 0.0
2017-Jun-23 11:00N 33°44' W 118°16'0 0.0
2017-Jun-23 10:30N 33°44' W 118°16'0 0.0
2017-Jun-23 09:36N 33°44' W 118°16'0 0.0
2017-Jun-23 09:30N 33°44' W 118°16'0 0.0
2017-Jun-23 08:54N 33°44' W 118°16'0 0.0
2017-Jun-23 08:26N 33°44' W 118°16'0 0.0
2017-Jun-23 07:02N 33°44' W 118°16'0 0.0
2017-Jun-23 06:35N 33°44' W 118°16'0 0.0
2017-Jun-23 06:26N 33°44' W 118°16'0 0.0
2017-Jun-23 05:56N 33°44' W 118°16'0 0.0
2017-Jun-23 05:14N 33°44' W 118°16'0 0.0
2017-Jun-23 04:59N 33°44' W 118°16'0 0.0
2017-Jun-23 04:20N 33°44' W 118°16'0 0.0
2017-Jun-23 03:20N 33°44' W 118°16'0 0.0
2017-Jun-23 02:56N 33°44' W 118°16'0 0.0
2017-Jun-23 02:26N 33°44' W 118°16'0 0.0
2017-Jun-23 01:59N 33°44' W 118°16'0 0.0
2017-Jun-23 01:26N 33°44' W 118°16'0 0.0
2017-Jun-23 00:56N 33°44' W 118°16'0 0.0
2017-Jun-23 00:26N 33°44' W 118°16'0 0.0
2017-Jun-22 23:14N 33°44' W 118°16'0 0.0
2017-Jun-22 22:56N 33°44' W 118°16'0 0.0
2017-Jun-22 22:20N 33°44' W 118°16'0 0.0
2017-Jun-22 21:56N 33°44' W 118°16'0 0.0
2017-Jun-22 21:26N 33°44' W 118°16'0 0.0
2017-Jun-22 20:02N 33°44' W 118°16'0 0.0
2017-Jun-22 19:56N 33°44' W 118°16'0 0.0
2017-Jun-22 19:20N 33°44' W 118°16'0 0.0
2017-Jun-22 18:44N 33°44' W 118°16'0 0.0
2017-Jun-22 17:32N 33°44' W 118°16'0 0.0
2017-Jun-22 17:26N 33°44' W 118°16'0 0.0
2017-Jun-22 16:56N 33°44' W 118°16'0 0.0
2017-Jun-22 16:02N 33°44' W 118°16'0 0.0
2017-Jun-22 15:56N 33°44' W 118°16'0 0.0
2017-Jun-22 15:26N 33°44' W 118°16'0 0.0
2017-Jun-22 14:50N 33°44' W 118°16'0 0.0
2017-Jun-22 13:56N 33°44' W 118°16'0 0.0
2017-Jun-22 13:29N 33°44' W 118°16'0 0.0
2017-Jun-22 12:56N 33°44' W 118°16'0 0.0
2017-Jun-22 12:20N 33°44' W 118°16'0 0.0
2017-Jun-22 11:53N 33°44' W 118°16'0 0.0
2017-Jun-22 11:29N 33°44' W 118°16'0 0.0
2017-Jun-22 10:59N 33°44' W 118°16'0 0.0
2017-Jun-22 10:26N 33°44' W 118°16'0 0.0
2017-Jun-22 09:56N 33°44' W 118°16'0 0.0
2017-Jun-22 09:29N 33°44' W 118°16'0 0.0
2017-Jun-22 08:59N 33°44' W 118°16'0 0.0
2017-Jun-22 08:30N 33°44' W 118°16'0 0.0
2017-Jun-22 07:57N 33°44' W 118°16'0 0.0
2017-Jun-22 07:30N 33°44' W 118°16'0 0.0
2017-Jun-22 06:57N 33°44' W 118°16'0 0.0
2017-Jun-22 06:30N 33°44' W 118°16'0 0.0
2017-Jun-22 06:00N 33°44' W 118°16'0 0.0
2017-Jun-22 05:30N 33°44' W 118°16'0 0.0
2017-Jun-22 05:00N 33°44' W 118°16'0 0.0
2017-Jun-22 04:27N 33°44' W 118°16'0 0.0
2017-Jun-22 03:51N 33°44' W 118°16'0 0.0
2017-Jun-22 03:24N 33°44' W 118°16'0 0.0
2017-Jun-22 03:00N 33°44' W 118°16'0 0.0
2017-Jun-22 02:27N 33°44' W 118°16'0 0.0
2017-Jun-22 01:57N 33°44' W 118°16'0 0.0
2017-Jun-22 01:30N 33°44' W 118°16'0 0.0
2017-Jun-22 01:00N 33°44' W 118°16'0 0.0
2017-Jun-22 00:30N 33°44' W 118°16'0 0.0
2017-Jun-22 00:00N 33°44' W 118°16'0 0.0
2017-Jun-21 23:30N 33°44' W 118°16'0 0.1
2017-Jun-21 23:00N 33°44' W 118°16'0 0.0
2017-Jun-21 22:30N 33°44' W 118°16'2 3.1
2017-Jun-21 21:59N 33°43' W 118°15'4 8.7
2017-Jun-21 21:30N 33°39' W 118°13'4 8.8
2017-Jun-21 21:00N 33°36' W 118°09'3 5.4
2017-Jun-21 20:30N 33°34' W 118°07'0 0.0
2017-Jun-21 20:00N 33°34' W 118°07'0 0.0
2017-Jun-21 19:30N 33°34' W 118°07'0 0.0
2017-Jun-21 19:00N 33°34' W 118°07'0 0.0
2017-Jun-21 18:30N 33°34' W 118°07'0 0.0
2017-Jun-21 18:00N 33°34' W 118°07'0 0.1
2017-Jun-21 17:30N 33°34' W 118°07'0 0.1
2017-Jun-21 16:58N 33°34' W 118°07'1 2.8
2017-Jun-21 16:30N 33°35' W 118°08'1 1.6
2017-Jun-21 16:00N 33°35' W 118°09'5 9.6
2017-Jun-21 15:30N 33°39' W 118°12'5 9.4
2017-Jun-21 14:59N 33°43' W 118°15'2 3.2
2017-Jun-21 14:30N 33°44' W 118°16'0 0.0
2017-Jun-21 12:35N 33°44' W 118°16'0 0.0
2017-Jun-21 12:30N 33°44' W 118°16'0 0.1
2017-Jun-21 11:57N 33°44' W 118°16'0 0.0
2017-Jun-21 11:28N 33°44' W 118°16'0 0.0
2017-Jun-21 10:59N 33°44' W 118°16'0 0.0
2017-Jun-21 10:30N 33°44' W 118°16'0 0.0
2017-Jun-21 10:00N 33°44' W 118°16'0 0.0
2017-Jun-21 09:30N 33°44' W 118°16'0 0.0
2017-Jun-21 09:00N 33°44' W 118°16'0 0.0
2017-Jun-21 08:30N 33°44' W 118°16'0 0.0
2017-Jun-21 08:00N 33°44' W 118°16'0 0.0
2017-Jun-21 07:30N 33°44' W 118°16'0 0.0
2017-Jun-21 07:00N 33°44' W 118°16'0 0.0
2017-Jun-21 06:30N 33°44' W 118°16'0 0.0
2017-Jun-21 06:00N 33°44' W 118°16'0 0.0
2017-Jun-21 05:30N 33°44' W 118°16'0 0.0
2017-Jun-21 05:00N 33°44' W 118°16'0 0.0
2017-Jun-21 04:30N 33°44' W 118°16'0 0.0
2017-Jun-21 04:00N 33°44' W 118°16'0 0.0
2017-Jun-21 03:30N 33°44' W 118°16'0 0.0
2017-Jun-21 03:00N 33°44' W 118°16'0 0.0
2017-Jun-21 02:30N 33°44' W 118°16'0 0.0
2017-Jun-21 02:00N 33°44' W 118°16'0 0.0
2017-Jun-21 01:30N 33°44' W 118°16'0 0.0
2017-Jun-21 01:00N 33°44' W 118°16'0 0.0
2017-Jun-21 00:30N 33°44' W 118°16'0 0.0
2017-Jun-21 00:00N 33°44' W 118°16'0 0.0
2017-Jun-20 23:30N 33°44' W 118°16'0 0.0
2017-Jun-20 23:00N 33°44' W 118°16'0 0.0
2017-Jun-20 22:30N 33°44' W 118°16'0 0.0
2017-Jun-20 22:00N 33°44' W 118°16'0 0.0
2017-Jun-20 21:30N 33°44' W 118°16'0 0.0
2017-Jun-20 21:00N 33°44' W 118°16'0 0.0
2017-Jun-20 20:30N 33°44' W 118°16'0 0.0
2017-Jun-20 20:00N 33°44' W 118°16'0 0.0
2017-Jun-20 19:30N 33°44' W 118°16'0 0.0
2017-Jun-20 19:00N 33°44' W 118°16'0 0.0
2017-Jun-20 18:30N 33°44' W 118°16'0 0.0
2017-Jun-20 18:00N 33°44' W 118°16'0 0.0
2017-Jun-20 17:30N 33°44' W 118°16'0 0.0
2017-Jun-20 16:59N 33°44' W 118°16'0 0.0
2017-Jun-20 16:30N 33°44' W 118°16'0 0.0
2017-Jun-20 16:00N 33°44' W 118°16'0 0.0
2017-Jun-20 14:11N 33°44' W 118°16'0 0.0
2017-Jun-20 13:30N 33°44' W 118°16'0 0.0
2017-Jun-20 11:59N 33°44' W 118°16'0 0.0
2017-Jun-20 11:13N 33°44' W 118°16'0 0.0
2017-Jun-20 10:55N 33°44' W 118°16'0 0.0
2017-Jun-20 09:13N 33°44' W 118°16'0 0.0
2017-Jun-20 08:56N 33°44' W 118°16'0 0.0
2017-Jun-20 07:48N 33°44' W 118°16'0 0.0
2017-Jun-20 07:25N 33°44' W 118°16'0 0.0
2017-Jun-20 06:58N 33°44' W 118°16'0 0.0
2017-Jun-20 06:30N 33°44' W 118°16'0 0.0
2017-Jun-20 05:59N 33°44' W 118°16'0 0.0
2017-Jun-20 05:28N 33°44' W 118°16'0 0.0
2017-Jun-20 05:00N 33°44' W 118°16'0 0.0
2017-Jun-20 04:30N 33°44' W 118°16'0 0.0
2017-Jun-20 04:00N 33°44' W 118°16'0 0.0
2017-Jun-20 03:30N 33°44' W 118°16'0 0.0
2017-Jun-20 03:00N 33°44' W 118°16'0 0.0
2017-Jun-20 02:30N 33°44' W 118°16'0 0.0
2017-Jun-20 02:00N 33°44' W 118°16'0 0.0
2017-Jun-20 01:30N 33°44' W 118°16'0 0.0
2017-Jun-20 01:00N 33°44' W 118°16'0 0.0
2017-Jun-20 00:30N 33°44' W 118°16'0 0.0
2017-Jun-20 00:00N 33°44' W 118°16'0 0.1
2017-Jun-19 23:30N 33°44' W 118°16'1 2.3
2017-Jun-19 23:00N 33°43' W 118°16'5 9.3
2017-Jun-19 22:30N 33°40' W 118°12'5 9.2
2017-Jun-19 22:00N 33°36' W 118°08'1 2.5
2017-Jun-19 21:30N 33°35' W 118°08'0 0.3
2017-Jun-19 21:00N 33°35' W 118°08'0 0.2
2017-Jun-19 20:30N 33°35' W 118°08'0 0.0
2017-Jun-19 20:00N 33°35' W 118°08'0 0.0
2017-Jun-19 19:30N 33°35' W 118°08'0 0.0
2017-Jun-19 19:00N 33°35' W 118°08'0 0.0
2017-Jun-19 18:30N 33°35' W 118°08'0 0.0
2017-Jun-19 18:00N 33°35' W 118°08'1 1.4
2017-Jun-19 17:30N 33°34' W 118°07'0 0.9
2017-Jun-19 17:00N 33°34' W 118°07'510.0
2017-Jun-19 16:30N 33°38' W 118°11'5 9.9
2017-Jun-19 16:00N 33°42' W 118°14'3 5.2
2017-Jun-19 15:30N 33°44' W 118°16'0 0.0
2017-Jun-19 15:00N 33°44' W 118°16'0 0.0
2017-Jun-19 14:30N 33°44' W 118°16'0 0.4
2017-Jun-19 13:30N 33°44' W 118°16'0 0.0
2017-Jun-19 12:58N 33°44' W 118°16'0 0.0
2017-Jun-19 12:23N 33°44' W 118°16'0 0.1
2017-Jun-19 12:01N 33°44' W 118°16'0 0.0
2017-Jun-19 11:30N 33°44' W 118°16'0 0.0
2017-Jun-19 11:00N 33°44' W 118°16'0 0.0
2017-Jun-19 10:30N 33°44' W 118°16'0 0.0
2017-Jun-19 10:00N 33°44' W 118°16'0 0.0
2017-Jun-19 09:30N 33°44' W 118°16'0 0.0
2017-Jun-19 09:00N 33°44' W 118°16'0 0.0
2017-Jun-19 08:30N 33°44' W 118°16'0 0.0
2017-Jun-19 08:00N 33°44' W 118°16'0 0.0
2017-Jun-19 07:30N 33°44' W 118°16'0 0.0
2017-Jun-19 07:00N 33°44' W 118°16'0 0.0
2017-Jun-19 06:26N 33°44' W 118°16'0 0.0
2017-Jun-19 06:00N 33°44' W 118°16'0 0.0
2017-Jun-19 05:30N 33°44' W 118°16'0 0.0
2017-Jun-19 04:58N 33°44' W 118°16'0 0.0
2017-Jun-19 04:30N 33°44' W 118°16'0 0.0
2017-Jun-19 04:00N 33°44' W 118°16'0 0.0
2017-Jun-19 03:30N 33°44' W 118°16'0 0.0
2017-Jun-19 03:00N 33°44' W 118°16'0 0.0
2017-Jun-19 02:30N 33°44' W 118°16'0 0.0
2017-Jun-19 02:00N 33°44' W 118°16'0 0.0
2017-Jun-19 01:30N 33°44' W 118°16'0 0.0
2017-Jun-19 01:00N 33°44' W 118°16'0 0.0
2017-Jun-19 00:30N 33°44' W 118°16'0 0.0
2017-Jun-19 00:00N 33°44' W 118°16'0 0.0
2017-Jun-18 23:30N 33°44' W 118°16'0 0.0
2017-Jun-18 23:00N 33°44' W 118°16'0 0.0
2017-Jun-18 22:30N 33°44' W 118°16'0 0.0
2017-Jun-18 22:00N 33°44' W 118°16'0 0.0
2017-Jun-18 21:30N 33°44' W 118°16'0 0.0
2017-Jun-18 21:00N 33°44' W 118°16'0 0.0
2017-Jun-18 20:29N 33°44' W 118°16'0 0.0
2017-Jun-18 19:58N 33°44' W 118°16'0 0.0
2017-Jun-18 19:30N 33°44' W 118°16'0 0.0
2017-Jun-18 19:00N 33°44' W 118°16'0 0.0
2017-Jun-18 18:30N 33°44' W 118°16'0 0.0
2017-Jun-18 18:00N 33°44' W 118°16'0 0.0
2017-Jun-18 17:30N 33°44' W 118°16'0 0.0
2017-Jun-18 17:00N 33°44' W 118°16'0 0.0
2017-Jun-18 16:30N 33°44' W 118°16'0 0.0
2017-Jun-18 16:00N 33°44' W 118°16'0 0.0
2017-Jun-18 15:30N 33°44' W 118°16'0 0.0
2017-Jun-18 14:52N 33°44' W 118°16'0 0.0
2017-Jun-18 14:00N 33°44' W 118°16'0 0.0
2017-Jun-18 13:30N 33°44' W 118°16'0 0.0
2017-Jun-18 13:00N 33°44' W 118°16'0 0.0
2017-Jun-18 12:28N 33°44' W 118°16'0 0.0
2017-Jun-18 11:51N 33°44' W 118°16'0 0.0
2017-Jun-18 11:30N 33°44' W 118°16'0 0.0
2017-Jun-18 11:00N 33°44' W 118°16'0 0.0
2017-Jun-18 10:30N 33°44' W 118°16'0 0.0
2017-Jun-18 10:00N 33°44' W 118°16'0 0.0
2017-Jun-18 09:30N 33°44' W 118°16'0 0.0
2017-Jun-18 09:00N 33°44' W 118°16'0 0.0
2017-Jun-18 08:30N 33°44' W 118°16'0 0.0
2017-Jun-18 08:00N 33°44' W 118°16'0 0.0
2017-Jun-18 07:30N 33°44' W 118°16'0 0.0
2017-Jun-18 07:00N 33°44' W 118°16'0 0.0
2017-Jun-18 06:30N 33°44' W 118°16'0 0.0
2017-Jun-18 06:00N 33°44' W 118°16'0 0.0
2017-Jun-18 05:30N 33°44' W 118°16'0 0.0
2017-Jun-18 05:00N 33°44' W 118°16'0 0.0
2017-Jun-18 04:30N 33°44' W 118°16'0 0.0
2017-Jun-18 04:00N 33°44' W 118°16'0 0.0
2017-Jun-18 03:30N 33°44' W 118°16'0 0.0
2017-Jun-18 03:00N 33°44' W 118°16'0 0.0
2017-Jun-18 02:30N 33°44' W 118°16'0 0.0
2017-Jun-18 02:00N 33°44' W 118°16'0 0.0
2017-Jun-18 01:30N 33°44' W 118°16'0 0.0
2017-Jun-18 01:00N 33°44' W 118°16'0 0.0
2017-Jun-18 00:30N 33°44' W 118°16'0 0.0
2017-Jun-18 00:00N 33°44' W 118°16'0 0.0
2017-Jun-17 23:30N 33°44' W 118°16'0 0.0
2017-Jun-17 23:00N 33°44' W 118°16'0 0.0
2017-Jun-17 22:30N 33°44' W 118°16'0 0.0
2017-Jun-17 22:00N 33°44' W 118°16'0 0.0
2017-Jun-17 21:30N 33°44' W 118°16'0 0.0
2017-Jun-17 21:00N 33°44' W 118°16'0 0.0
2017-Jun-17 20:30N 33°44' W 118°16'0 0.0
2017-Jun-17 20:00N 33°44' W 118°16'0 0.0
2017-Jun-17 19:30N 33°44' W 118°16'0 0.0
2017-Jun-17 19:00N 33°44' W 118°16'0 0.0
2017-Jun-17 18:30N 33°44' W 118°16'0 0.0
2017-Jun-17 18:00N 33°44' W 118°16'0 0.0
2017-Jun-17 17:30N 33°44' W 118°16'0 0.0
2017-Jun-17 17:00N 33°44' W 118°16'0 0.0
2017-Jun-17 16:30N 33°44' W 118°16'0 0.0
2017-Jun-17 16:00N 33°44' W 118°16'0 0.0
2017-Jun-17 15:30N 33°44' W 118°16'0 0.0
2017-Jun-17 15:00N 33°44' W 118°16'0 0.0
2017-Jun-17 14:00N 33°44' W 118°16'0 0.0
2017-Jun-17 13:30N 33°44' W 118°16'0 0.0
2017-Jun-17 13:00N 33°44' W 118°16'0 0.0
2017-Jun-17 12:30N 33°44' W 118°16'0 0.0
2017-Jun-17 12:00N 33°44' W 118°16'  
Track history (hours):
 
Tides and Currents Weather Stations Pressure Air Temp Water Temp Dewpoint Dewpoint Depression Visibility Wind Speed Wind Dir Waves Ship Positions

Kenneth Carl

Owner: So. Cal. Ship Services, Inc., San Pedro, CA. More information available from US FCC via Universal Licensing System and Coast Guard Vessel Documentation Center.

Last reported at 2017-Jun-27 12:00 UTC. Time now 2017-Jun-27 12:19 UTC.
Position N 33°44' W 118°16'.

Length 31 m; draft 3 m.

Type: Ship. MMSI: 367492920.

Date/timePositionNaut miles runAvg speedWind from/ knotsBaromVisibWave heightAir tempDewpointWater temp
2017-Jun-27 12:00N 33°44' W 118°16'0 0.0
2017-Jun-27 11:29N 33°44' W 118°16'0 0.0
2017-Jun-27 10:59N 33°44' W 118°16'0 0.0
2017-Jun-27 10:30N 33°44' W 118°16'0 0.0
2017-Jun-27 10:00N 33°44' W 118°16'0 0.0
2017-Jun-27 09:26N 33°44' W 118°16'0 0.0
2017-Jun-27 09:00N 33°44' W 118°16'0 0.0
2017-Jun-27 08:30N 33°44' W 118°16'0 0.0
2017-Jun-27 07:59N 33°44' W 118°16'0 0.0
2017-Jun-27 07:29N 33°44' W 118°16'0 0.0
2017-Jun-27 06:59N 33°44' W 118°16'0 0.0
2017-Jun-27 06:24N 33°44' W 118°16'0 0.0
2017-Jun-27 06:00N 33°44' W 118°16'0 0.0
2017-Jun-27 05:30N 33°44' W 118°16'0 0.0
2017-Jun-27 05:00N 33°44' W 118°16'0 0.0
2017-Jun-27 04:30N 33°44' W 118°16'0 0.0
2017-Jun-27 04:00N 33°44' W 118°16'0 0.0
2017-Jun-27 03:30N 33°44' W 118°16'0 0.0
2017-Jun-27 03:00N 33°44' W 118°16'0 0.0
2017-Jun-27 02:27N 33°44' W 118°16'0 0.0
2017-Jun-27 02:00N 33°44' W 118°16'0 0.0
2017-Jun-27 01:30N 33°44' W 118°16'0 0.0
2017-Jun-27 01:00N 33°44' W 118°16'0 0.0
2017-Jun-27 00:30N 33°44' W 118°16'0 0.0
2017-Jun-27 00:00N 33°44' W 118°16'0 0.0
2017-Jun-26 23:30N 33°44' W 118°16'4 7.8
2017-Jun-26 23:00N 33°41' W 118°13'5 9.2
2017-Jun-26 22:30N 33°37' W 118°10'3 6.3
2017-Jun-26 22:00N 33°35' W 118°08'0 0.2
2017-Jun-26 21:30N 33°35' W 118°08'0 0.2
2017-Jun-26 21:00N 33°35' W 118°08'0 0.0
2017-Jun-26 20:30N 33°35' W 118°08'0 0.0
2017-Jun-26 20:00N 33°35' W 118°08'0 0.0
2017-Jun-26 19:30N 33°35' W 118°08'0 0.0
2017-Jun-26 19:00N 33°35' W 118°08'0 0.0
2017-Jun-26 18:30N 33°35' W 118°08'0 0.0
2017-Jun-26 18:00N 33°35' W 118°08'0 0.0
2017-Jun-26 17:30N 33°35' W 118°08'1 1.9
2017-Jun-26 17:00N 33°34' W 118°07'0 0.3
2017-Jun-26 16:30N 33°34' W 118°07'510.4
2017-Jun-26 16:00N 33°39' W 118°10'510.3
2017-Jun-26 15:30N 33°42' W 118°15'2 4.3
2017-Jun-26 15:00N 33°44' W 118°16'0 0.0
2017-Jun-26 14:30N 33°44' W 118°16'0 0.4
2017-Jun-26 13:28N 33°44' W 118°16'0 0.0
2017-Jun-26 12:55N 33°44' W 118°16'0 0.7
2017-Jun-26 12:30N 33°44' W 118°16'0 0.2
2017-Jun-26 11:59N 33°44' W 118°16'0 0.0
2017-Jun-26 11:26N 33°44' W 118°16'0 0.0
2017-Jun-26 10:59N 33°44' W 118°16'0 0.0
2017-Jun-26 10:23N 33°44' W 118°16'0 0.0
2017-Jun-26 09:59N 33°44' W 118°16'0 0.0
2017-Jun-26 09:29N 33°44' W 118°16'0 0.0
2017-Jun-26 08:59N 33°44' W 118°16'0 0.0
2017-Jun-26 08:29N 33°44' W 118°16'0 0.0
2017-Jun-26 08:00N 33°44' W 118°16'0 0.0
2017-Jun-26 07:26N 33°44' W 118°16'0 0.0
2017-Jun-26 06:59N 33°44' W 118°16'0 0.0
2017-Jun-26 06:20N 33°44' W 118°16'0 0.0
2017-Jun-26 05:59N 33°44' W 118°16'0 0.0
2017-Jun-26 05:20N 33°44' W 118°16'0 0.0
2017-Jun-26 04:59N 33°44' W 118°16'0 0.0
2017-Jun-26 04:26N 33°44' W 118°16'0 0.0
2017-Jun-26 03:56N 33°44' W 118°16'0 0.0
2017-Jun-26 03:29N 33°44' W 118°16'0 0.0
2017-Jun-26 02:59N 33°44' W 118°16'0 0.0
2017-Jun-26 02:09N 33°44' W 118°16'0 0.0
2017-Jun-26 01:59N 33°44' W 118°16'0 0.0
2017-Jun-26 01:29N 33°44' W 118°16'0 0.0
2017-Jun-26 00:53N 33°44' W 118°16'0 0.0
2017-Jun-26 00:26N 33°44' W 118°16'0 0.0
2017-Jun-25 23:56N 33°44' W 118°16'0 0.0
2017-Jun-25 23:20N 33°44' W 118°16'0 0.0
2017-Jun-25 22:59N 33°44' W 118°16'0 0.0
2017-Jun-25 22:29N 33°44' W 118°16'0 0.0
2017-Jun-25 21:59N 33°44' W 118°16'0 0.0
2017-Jun-25 21:29N 33°44' W 118°16'0 0.0
2017-Jun-25 20:56N 33°44' W 118°16'0 0.0
2017-Jun-25 20:14N 33°44' W 118°16'0 0.0
2017-Jun-25 19:56N 33°44' W 118°16'0 0.0
2017-Jun-25 19:29N 33°44' W 118°16'0 0.0
2017-Jun-25 18:56N 33°44' W 118°16'0 0.0
2017-Jun-25 18:29N 33°44' W 118°16'0 0.0
2017-Jun-25 17:59N 33°44' W 118°16'0 0.0
2017-Jun-25 17:29N 33°44' W 118°16'0 0.0
2017-Jun-25 15:56N 33°44' W 118°16'0 0.0
2017-Jun-25 15:29N 33°44' W 118°16'0 0.0
2017-Jun-25 14:56N 33°44' W 118°16'0 0.0
2017-Jun-25 14:27N 33°44' W 118°16'0 0.0
2017-Jun-25 13:26N 33°44' W 118°16'0 0.0
2017-Jun-25 12:14N 33°44' W 118°16'0 0.0
2017-Jun-25 11:53N 33°44' W 118°16'0 0.0
2017-Jun-25 11:27N 33°44' W 118°16'0 0.0
2017-Jun-25 10:50N 33°44' W 118°16'0 0.0
2017-Jun-25 10:08N 33°44' W 118°16'0 0.0
2017-Jun-25 09:50N 33°44' W 118°16'0 0.0
2017-Jun-25 09:21N 33°44' W 118°16'0 0.0
2017-Jun-25 08:50N 33°44' W 118°16'0 0.0
2017-Jun-25 08:30N 33°44' W 118°16'0 0.0
2017-Jun-25 07:46N 33°44' W 118°16'0 0.0
2017-Jun-25 07:16N 33°44' W 118°16'0 0.0
2017-Jun-25 06:52N 33°44' W 118°16'0 0.0
2017-Jun-25 06:28N 33°44' W 118°16'0 0.0
2017-Jun-25 05:58N 33°44' W 118°16'0 0.0
2017-Jun-25 05:22N 33°44' W 118°16'0 0.0
2017-Jun-25 04:58N 33°44' W 118°16'0 0.0
2017-Jun-25 04:28N 33°44' W 118°16'0 0.0
2017-Jun-25 03:58N 33°44' W 118°16'0 0.0
2017-Jun-25 03:28N 33°44' W 118°16'0 0.0
2017-Jun-25 02:58N 33°44' W 118°16'0 0.0
2017-Jun-25 02:28N 33°44' W 118°16'0 0.0
2017-Jun-25 01:58N 33°44' W 118°16'0 0.0
2017-Jun-25 01:22N 33°44' W 118°16'0 0.0
2017-Jun-25 00:55N 33°44' W 118°16'0 0.0
2017-Jun-25 00:28N 33°44' W 118°16'0 0.0
2017-Jun-24 22:40N 33°44' W 118°16'0 0.0
2017-Jun-24 22:25N 33°44' W 118°16'0 0.0
2017-Jun-24 21:34N 33°44' W 118°16'0 0.0
2017-Jun-24 21:28N 33°44' W 118°16'0 0.0
2017-Jun-24 18:22N 33°44' W 118°16'0 0.0
2017-Jun-24 17:52N 33°44' W 118°16'0 0.0
2017-Jun-24 16:34N 33°44' W 118°16'0 0.0
2017-Jun-24 16:28N 33°44' W 118°16'0 0.0
2017-Jun-24 15:52N 33°44' W 118°16'0 0.0
2017-Jun-24 15:28N 33°44' W 118°16'0 0.0
2017-Jun-24 13:58N 33°44' W 118°16'0 0.0
2017-Jun-24 13:22N 33°44' W 118°16'0 0.0
2017-Jun-24 12:58N 33°44' W 118°16'0 0.0
2017-Jun-24 12:28N 33°44' W 118°16'0 0.0
2017-Jun-24 11:55N 33°44' W 118°16'0 0.0
2017-Jun-24 11:22N 33°44' W 118°16'0 0.0
2017-Jun-24 10:58N 33°44' W 118°16'0 0.0
2017-Jun-24 10:28N 33°44' W 118°16'0 0.0
2017-Jun-24 09:58N 33°44' W 118°16'0 0.0
2017-Jun-24 09:19N 33°44' W 118°16'0 0.0
2017-Jun-24 08:58N 33°44' W 118°16'0 0.0
2017-Jun-24 08:22N 33°44' W 118°16'0 0.0
2017-Jun-24 07:55N 33°44' W 118°16'0 0.0
2017-Jun-24 07:25N 33°44' W 118°16'0 0.0
2017-Jun-24 06:58N 33°44' W 118°16'0 0.0
2017-Jun-24 06:28N 33°44' W 118°16'0 0.0
2017-Jun-24 05:55N 33°44' W 118°16'0 0.0
2017-Jun-24 05:28N 33°44' W 118°16'0 0.0
2017-Jun-24 04:58N 33°44' W 118°16'0 0.0
2017-Jun-24 04:28N 33°44' W 118°16'0 0.0
2017-Jun-24 03:55N 33°44' W 118°16'0 0.0
2017-Jun-24 03:07N 33°44' W 118°16'0 0.0
2017-Jun-24 02:55N 33°44' W 118°16'0 0.0
2017-Jun-24 02:19N 33°44' W 118°16'0 0.0
2017-Jun-24 01:52N 33°44' W 118°16'0 0.0
2017-Jun-24 00:05N 33°44' W 118°16'0 0.0
2017-Jun-24 00:00N 33°44' W 118°16'1 1.8
2017-Jun-23 23:28N 33°43' W 118°16'5 9.7
2017-Jun-23 22:58N 33°40' W 118°12'4 9.3
2017-Jun-23 22:30N 33°36' W 118°09'2 3.5
2017-Jun-23 22:00N 33°35' W 118°08'0 0.4
2017-Jun-23 21:30N 33°35' W 118°08'0 0.3
2017-Jun-23 21:00N 33°35' W 118°08'0 0.0
2017-Jun-23 20:24N 33°35' W 118°08'0 0.0
2017-Jun-23 19:59N 33°35' W 118°08'0 0.0
2017-Jun-23 19:30N 33°35' W 118°08'0 0.0
2017-Jun-23 19:00N 33°35' W 118°08'0 0.0
2017-Jun-23 18:30N 33°35' W 118°08'0 0.0
2017-Jun-23 17:57N 33°35' W 118°08'0 0.0
2017-Jun-23 17:30N 33°35' W 118°08'0 0.0
2017-Jun-23 17:00N 33°35' W 118°08'1 2.8
2017-Jun-23 16:30N 33°36' W 118°08'610.6
2017-Jun-23 15:57N 33°41' W 118°13'4 8.8
2017-Jun-23 15:27N 33°44' W 118°16'0 0.2
2017-Jun-23 15:00N 33°44' W 118°16'0 0.0
2017-Jun-23 14:09N 33°44' W 118°16'0 0.3
2017-Jun-23 13:04N 33°44' W 118°16'0 0.0
2017-Jun-23 12:52N 33°44' W 118°16'0 0.0
2017-Jun-23 12:30N 33°44' W 118°16'0 0.8
2017-Jun-23 12:00N 33°44' W 118°16'0 0.0
2017-Jun-23 11:18N 33°44' W 118°16'0 0.0
2017-Jun-23 11:00N 33°44' W 118°16'0 0.0
2017-Jun-23 10:30N 33°44' W 118°16'0 0.0
2017-Jun-23 09:36N 33°44' W 118°16'0 0.0
2017-Jun-23 09:30N 33°44' W 118°16'0 0.0
2017-Jun-23 08:54N 33°44' W 118°16'0 0.0
2017-Jun-23 08:26N 33°44' W 118°16'0 0.0
2017-Jun-23 07:02N 33°44' W 118°16'0 0.0
2017-Jun-23 06:35N 33°44' W 118°16'0 0.0
2017-Jun-23 06:26N 33°44' W 118°16'0 0.0
2017-Jun-23 05:56N 33°44' W 118°16'0 0.0
2017-Jun-23 05:14N 33°44' W 118°16'0 0.0
2017-Jun-23 04:59N 33°44' W 118°16'0 0.0
2017-Jun-23 04:20N 33°44' W 118°16'0 0.0
2017-Jun-23 03:20N 33°44' W 118°16'0 0.0
2017-Jun-23 02:56N 33°44' W 118°16'0 0.0
2017-Jun-23 02:26N 33°44' W 118°16'0 0.0
2017-Jun-23 01:59N 33°44' W 118°16'0 0.0
2017-Jun-23 01:26N 33°44' W 118°16'0 0.0
2017-Jun-23 00:56N 33°44' W 118°16'0 0.0
2017-Jun-23 00:26N 33°44' W 118°16'0 0.0
2017-Jun-22 23:14N 33°44' W 118°16'0 0.0
2017-Jun-22 22:56N 33°44' W 118°16'0 0.0
2017-Jun-22 22:20N 33°44' W 118°16'0 0.0
2017-Jun-22 21:56N 33°44' W 118°16'0 0.0
2017-Jun-22 21:26N 33°44' W 118°16'0 0.0
2017-Jun-22 20:02N 33°44' W 118°16'0 0.0
2017-Jun-22 19:56N 33°44' W 118°16'0 0.0
2017-Jun-22 19:20N 33°44' W 118°16'0 0.0
2017-Jun-22 18:44N 33°44' W 118°16'0 0.0
2017-Jun-22 17:32N 33°44' W 118°16'0 0.0
2017-Jun-22 17:26N 33°44' W 118°16'0 0.0
2017-Jun-22 16:56N 33°44' W 118°16'0 0.0
2017-Jun-22 16:02N 33°44' W 118°16'0 0.0
2017-Jun-22 15:56N 33°44' W 118°16'0 0.0
2017-Jun-22 15:26N 33°44' W 118°16'0 0.0
2017-Jun-22 14:50N 33°44' W 118°16'0 0.0
2017-Jun-22 13:56N 33°44' W 118°16'0 0.0
2017-Jun-22 13:29N 33°44' W 118°16'0 0.0
2017-Jun-22 12:56N 33°44' W 118°16'0 0.0
2017-Jun-22 12:20N 33°44' W 118°16'0 0.0
2017-Jun-22 11:53N 33°44' W 118°16'0 0.0
2017-Jun-22 11:29N 33°44' W 118°16'0 0.0
2017-Jun-22 10:59N 33°44' W 118°16'0 0.0
2017-Jun-22 10:26N 33°44' W 118°16'0 0.0
2017-Jun-22 09:56N 33°44' W 118°16'0 0.0
2017-Jun-22 09:29N 33°44' W 118°16'0 0.0
2017-Jun-22 08:59N 33°44' W 118°16'0 0.0
2017-Jun-22 08:30N 33°44' W 118°16'0 0.0
2017-Jun-22 07:57N 33°44' W 118°16'0 0.0
2017-Jun-22 07:30N 33°44' W 118°16'0 0.0
2017-Jun-22 06:57N 33°44' W 118°16'0 0.0
2017-Jun-22 06:30N 33°44' W 118°16'0 0.0
2017-Jun-22 06:00N 33°44' W 118°16'0 0.0
2017-Jun-22 05:30N 33°44' W 118°16'0 0.0
2017-Jun-22 05:00N 33°44' W 118°16'0 0.0
2017-Jun-22 04:27N 33°44' W 118°16'0 0.0
2017-Jun-22 03:51N 33°44' W 118°16'0 0.0
2017-Jun-22 03:24N 33°44' W 118°16'0 0.0
2017-Jun-22 03:00N 33°44' W 118°16'0 0.0
2017-Jun-22 02:27N 33°44' W 118°16'0 0.0
2017-Jun-22 01:57N 33°44' W 118°16'0 0.0
2017-Jun-22 01:30N 33°44' W 118°16'0 0.0
2017-Jun-22 01:00N 33°44' W 118°16'0 0.0
2017-Jun-22 00:30N 33°44' W 118°16'0 0.0
2017-Jun-22 00:00N 33°44' W 118°16'0 0.0
2017-Jun-21 23:30N 33°44' W 118°16'0 0.1
2017-Jun-21 23:00N 33°44' W 118°16'0 0.0
2017-Jun-21 22:30N 33°44' W 118°16'2 3.1
2017-Jun-21 21:59N 33°43' W 118°15'4 8.7
2017-Jun-21 21:30N 33°39' W 118°13'4 8.8
2017-Jun-21 21:00N 33°36' W 118°09'3 5.4
2017-Jun-21 20:30N 33°34' W 118°07'0 0.0
2017-Jun-21 20:00N 33°34' W 118°07'0 0.0
2017-Jun-21 19:30N 33°34' W 118°07'0 0.0
2017-Jun-21 19:00N 33°34' W 118°07'0 0.0
2017-Jun-21 18:30N 33°34' W 118°07'0 0.0
2017-Jun-21 18:00N 33°34' W 118°07'0 0.1
2017-Jun-21 17:30N 33°34' W 118°07'0 0.1
2017-Jun-21 16:58N 33°34' W 118°07'1 2.8
2017-Jun-21 16:30N 33°35' W 118°08'1 1.6
2017-Jun-21 16:00N 33°35' W 118°09'5 9.6
2017-Jun-21 15:30N 33°39' W 118°12'5 9.4
2017-Jun-21 14:59N 33°43' W 118°15'2 3.2
2017-Jun-21 14:30N 33°44' W 118°16'0 0.0
2017-Jun-21 12:35N 33°44' W 118°16'0 0.0
2017-Jun-21 12:30N 33°44' W 118°16'0 0.1
2017-Jun-21 11:57N 33°44' W 118°16'0 0.0
2017-Jun-21 11:28N 33°44' W 118°16'0 0.0
2017-Jun-21 10:59N 33°44' W 118°16'0 0.0
2017-Jun-21 10:30N 33°44' W 118°16'0 0.0
2017-Jun-21 10:00N 33°44' W 118°16'0 0.0
2017-Jun-21 09:30N 33°44' W 118°16'0 0.0
2017-Jun-21 09:00N 33°44' W 118°16'0 0.0
2017-Jun-21 08:30N 33°44' W 118°16'0 0.0
2017-Jun-21 08:00N 33°44' W 118°16'0 0.0
2017-Jun-21 07:30N 33°44' W 118°16'0 0.0
2017-Jun-21 07:00N 33°44' W 118°16'0 0.0
2017-Jun-21 06:30N 33°44' W 118°16'0 0.0
2017-Jun-21 06:00N 33°44' W 118°16'0 0.0
2017-Jun-21 05:30N 33°44' W 118°16'0 0.0
2017-Jun-21 05:00N 33°44' W 118°16'0 0.0
2017-Jun-21 04:30N 33°44' W 118°16'0 0.0
2017-Jun-21 04:00N 33°44' W 118°16'0 0.0
2017-Jun-21 03:30N 33°44' W 118°16'0 0.0
2017-Jun-21 03:00N 33°44' W 118°16'0 0.0
2017-Jun-21 02:30N 33°44' W 118°16'0 0.0
2017-Jun-21 02:00N 33°44' W 118°16'0 0.0
2017-Jun-21 01:30N 33°44' W 118°16'0 0.0
2017-Jun-21 01:00N 33°44' W 118°16'0 0.0
2017-Jun-21 00:30N 33°44' W 118°16'0 0.0
2017-Jun-21 00:00N 33°44' W 118°16'0 0.0
2017-Jun-20 23:30N 33°44' W 118°16'0 0.0
2017-Jun-20 23:00N 33°44' W 118°16'0 0.0
2017-Jun-20 22:30N 33°44' W 118°16'0 0.0
2017-Jun-20 22:00N 33°44' W 118°16'0 0.0
2017-Jun-20 21:30N 33°44' W 118°16'0 0.0
2017-Jun-20 21:00N 33°44' W 118°16'0 0.0
2017-Jun-20 20:30N 33°44' W 118°16'0 0.0
2017-Jun-20 20:00N 33°44' W 118°16'0 0.0
2017-Jun-20 19:30N 33°44' W 118°16'0 0.0
2017-Jun-20 19:00N 33°44' W 118°16'0 0.0
2017-Jun-20 18:30N 33°44' W 118°16'0 0.0
2017-Jun-20 18:00N 33°44' W 118°16'0 0.0
2017-Jun-20 17:30N 33°44' W 118°16'0 0.0
2017-Jun-20 16:59N 33°44' W 118°16'0 0.0
2017-Jun-20 16:30N 33°44' W 118°16'0 0.0
2017-Jun-20 16:00N 33°44' W 118°16'0 0.0
2017-Jun-20 14:11N 33°44' W 118°16'0 0.0
2017-Jun-20 13:30N 33°44' W 118°16'0 0.0
2017-Jun-20 11:59N 33°44' W 118°16'0 0.0
2017-Jun-20 11:13N 33°44' W 118°16'0 0.0
2017-Jun-20 10:55N 33°44' W 118°16'0 0.0
2017-Jun-20 09:13N 33°44' W 118°16'0 0.0
2017-Jun-20 08:56N 33°44' W 118°16'0 0.0
2017-Jun-20 07:48N 33°44' W 118°16'0 0.0
2017-Jun-20 07:25N 33°44' W 118°16'0 0.0
2017-Jun-20 06:58N 33°44' W 118°16'0 0.0
2017-Jun-20 06:30N 33°44' W 118°16'0 0.0
2017-Jun-20 05:59N 33°44' W 118°16'0 0.0
2017-Jun-20 05:28N 33°44' W 118°16'0 0.0
2017-Jun-20 05:00N 33°44' W 118°16'0 0.0
2017-Jun-20 04:30N 33°44' W 118°16'0 0.0
2017-Jun-20 04:00N 33°44' W 118°16'0 0.0
2017-Jun-20 03:30N 33°44' W 118°16'0 0.0
2017-Jun-20 03:00N 33°44' W 118°16'0 0.0
2017-Jun-20 02:30N 33°44' W 118°16'0 0.0
2017-Jun-20 02:00N 33°44' W 118°16'0 0.0
2017-Jun-20 01:30N 33°44' W 118°16'0 0.0
2017-Jun-20 01:00N 33°44' W 118°16'0 0.0
2017-Jun-20 00:30N 33°44' W 118°16'0 0.0
2017-Jun-20 00:00N 33°44' W 118°16'0 0.1
2017-Jun-19 23:30N 33°44' W 118°16'1 2.3
2017-Jun-19 23:00N 33°43' W 118°16'5 9.3
2017-Jun-19 22:30N 33°40' W 118°12'5 9.2
2017-Jun-19 22:00N 33°36' W 118°08'1 2.5
2017-Jun-19 21:30N 33°35' W 118°08'0 0.3
2017-Jun-19 21:00N 33°35' W 118°08'0 0.2
2017-Jun-19 20:30N 33°35' W 118°08'0 0.0
2017-Jun-19 20:00N 33°35' W 118°08'0 0.0
2017-Jun-19 19:30N 33°35' W 118°08'0 0.0
2017-Jun-19 19:00N 33°35' W 118°08'0 0.0
2017-Jun-19 18:30N 33°35' W 118°08'0 0.0
2017-Jun-19 18:00N 33°35' W 118°08'1 1.4
2017-Jun-19 17:30N 33°34' W 118°07'0 0.9
2017-Jun-19 17:00N 33°34' W 118°07'510.0
2017-Jun-19 16:30N 33°38' W 118°11'5 9.9
2017-Jun-19 16:00N 33°42' W 118°14'3 5.2
2017-Jun-19 15:30N 33°44' W 118°16'0 0.0
2017-Jun-19 15:00N 33°44' W 118°16'0 0.0
2017-Jun-19 14:30N 33°44' W 118°16'0 0.4
2017-Jun-19 13:30N 33°44' W 118°16'0 0.0
2017-Jun-19 12:58N 33°44' W 118°16'0 0.0
2017-Jun-19 12:23N 33°44' W 118°16'0 0.1
2017-Jun-19 12:01N 33°44' W 118°16'0 0.0
2017-Jun-19 11:30N 33°44' W 118°16'0 0.0
2017-Jun-19 11:00N 33°44' W 118°16'0 0.0
2017-Jun-19 10:30N 33°44' W 118°16'0 0.0
2017-Jun-19 10:00N 33°44' W 118°16'0 0.0
2017-Jun-19 09:30N 33°44' W 118°16'0 0.0
2017-Jun-19 09:00N 33°44' W 118°16'0 0.0
2017-Jun-19 08:30N 33°44' W 118°16'0 0.0
2017-Jun-19 08:00N 33°44' W 118°16'0 0.0
2017-Jun-19 07:30N 33°44' W 118°16'0 0.0
2017-Jun-19 07:00N 33°44' W 118°16'0 0.0
2017-Jun-19 06:26N 33°44' W 118°16'0 0.0
2017-Jun-19 06:00N 33°44' W 118°16'0 0.0
2017-Jun-19 05:30N 33°44' W 118°16'0 0.0
2017-Jun-19 04:58N 33°44' W 118°16'0 0.0
2017-Jun-19 04:30N 33°44' W 118°16'0 0.0
2017-Jun-19 04:00N 33°44' W 118°16'0 0.0
2017-Jun-19 03:30N 33°44' W 118°16'0 0.0
2017-Jun-19 03:00N 33°44' W 118°16'0 0.0
2017-Jun-19 02:30N 33°44' W 118°16'0 0.0
2017-Jun-19 02:00N 33°44' W 118°16'0 0.0
2017-Jun-19 01:30N 33°44' W 118°16'0 0.0
2017-Jun-19 01:00N 33°44' W 118°16'0 0.0
2017-Jun-19 00:30N 33°44' W 118°16'0 0.0
2017-Jun-19 00:00N 33°44' W 118°16'0 0.0
2017-Jun-18 23:30N 33°44' W 118°16'0 0.0
2017-Jun-18 23:00N 33°44' W 118°16'0 0.0
2017-Jun-18 22:30N 33°44' W 118°16'0 0.0
2017-Jun-18 22:00N 33°44' W 118°16'0 0.0
2017-Jun-18 21:30N 33°44' W 118°16'0 0.0
2017-Jun-18 21:00N 33°44' W 118°16'0 0.0
2017-Jun-18 20:29N 33°44' W 118°16'0 0.0
2017-Jun-18 19:58N 33°44' W 118°16'0 0.0
2017-Jun-18 19:30N 33°44' W 118°16'0 0.0
2017-Jun-18 19:00N 33°44' W 118°16'0 0.0
2017-Jun-18 18:30N 33°44' W 118°16'0 0.0
2017-Jun-18 18:00N 33°44' W 118°16'0 0.0
2017-Jun-18 17:30N 33°44' W 118°16'0 0.0
2017-Jun-18 17:00N 33°44' W 118°16'0 0.0
2017-Jun-18 16:30N 33°44' W 118°16'0 0.0
2017-Jun-18 16:00N 33°44' W 118°16'0 0.0
2017-Jun-18 15:30N 33°44' W 118°16'0 0.0
2017-Jun-18 14:52N 33°44' W 118°16'0 0.0
2017-Jun-18 14:00N 33°44' W 118°16'0 0.0
2017-Jun-18 13:30N 33°44' W 118°16'0 0.0
2017-Jun-18 13:00N 33°44' W 118°16'0 0.0
2017-Jun-18 12:28N 33°44' W 118°16'0 0.0
2017-Jun-18 11:51N 33°44' W 118°16'0 0.0
2017-Jun-18 11:30N 33°44' W 118°16'0 0.0
2017-Jun-18 11:00N 33°44' W 118°16'0 0.0
2017-Jun-18 10:30N 33°44' W 118°16'0 0.0
2017-Jun-18 10:00N 33°44' W 118°16'0 0.0
2017-Jun-18 09:30N 33°44' W 118°16'0 0.0
2017-Jun-18 09:00N 33°44' W 118°16'0 0.0
2017-Jun-18 08:30N 33°44' W 118°16'0 0.0
2017-Jun-18 08:00N 33°44' W 118°16'0 0.0
2017-Jun-18 07:30N 33°44' W 118°16'0 0.0
2017-Jun-18 07:00N 33°44' W 118°16'0 0.0
2017-Jun-18 06:30N 33°44' W 118°16'0 0.0
2017-Jun-18 06:00N 33°44' W 118°16'0 0.0
2017-Jun-18 05:30N 33°44' W 118°16'0 0.0
2017-Jun-18 05:00N 33°44' W 118°16'0 0.0
2017-Jun-18 04:30N 33°44' W 118°16'0 0.0
2017-Jun-18 04:00N 33°44' W 118°16'0 0.0
2017-Jun-18 03:30N 33°44' W 118°16'0 0.0
2017-Jun-18 03:00N 33°44' W 118°16'0 0.0
2017-Jun-18 02:30N 33°44' W 118°16'0 0.0
2017-Jun-18 02:00N 33°44' W 118°16'0 0.0
2017-Jun-18 01:30N 33°44' W 118°16'0 0.0
2017-Jun-18 01:00N 33°44' W 118°16'0 0.0
2017-Jun-18 00:30N 33°44' W 118°16'0 0.0
2017-Jun-18 00:00N 33°44' W 118°16'0 0.0
2017-Jun-17 23:30N 33°44' W 118°16'0 0.0
2017-Jun-17 23:00N 33°44' W 118°16'0 0.0
2017-Jun-17 22:30N 33°44' W 118°16'0 0.0
2017-Jun-17 22:00N 33°44' W 118°16'0 0.0
2017-Jun-17 21:30N 33°44' W 118°16'0 0.0
2017-Jun-17 21:00N 33°44' W 118°16'0 0.0
2017-Jun-17 20:30N 33°44' W 118°16'0 0.0
2017-Jun-17 20:00N 33°44' W 118°16'0 0.0
2017-Jun-17 19:30N 33°44' W 118°16'0 0.0
2017-Jun-17 19:00N 33°44' W 118°16'0 0.0
2017-Jun-17 18:30N 33°44' W 118°16'0 0.0
2017-Jun-17 18:00N 33°44' W 118°16'0 0.0
2017-Jun-17 17:30N 33°44' W 118°16'0 0.0
2017-Jun-17 17:00N 33°44' W 118°16'0 0.0
2017-Jun-17 16:30N 33°44' W 118°16'0 0.0
2017-Jun-17 16:00N 33°44' W 118°16'0 0.0
2017-Jun-17 15:30N 33°44' W 118°16'0 0.0
2017-Jun-17 15:00N 33°44' W 118°16'0 0.0
2017-Jun-17 14:00N 33°44' W 118°16'0 0.0
2017-Jun-17 13:30N 33°44' W 118°16'0 0.0
2017-Jun-17 13:00N 33°44' W 118°16'0 0.0
2017-Jun-17 12:30N 33°44' W 118°16'0 0.0
2017-Jun-17 12:00N 33°44' W 118°16'  

Dump ship's entire track history